Time;durP1;ratioP1;P1;durP2;ratioP2;P2;SDS_P1;SDS_P2;PMS_P1;PMS_P2;Temp;Humidity;BMP_temperature;BMP_pressure;BME280_temperature;BME280_humidity;BME280_pressure;Samples;Min_cycle;Max_cycle;Signal;HPM_P1;HPM_P2
2021/03/13 00:01:42;;;;;;;27.48;4.88;;;5.30;91.80;;;;;;4995101;28;20483;-89
2021/03/13 00:04:18;;;;;;;33.38;5.30;;;5.30;91.70;;;;;;4992454;28;20495;-88
2021/03/13 00:06:57;;;;;;;39.35;5.18;;;5.30;91.70;;;;;;4994294;28;20457;-87
2021/03/13 00:09:28;;;;;;;29.60;4.90;;;5.30;91.80;;;;;;4994637;28;20057;-87
2021/03/13 00:11:54;;;;;;;24.80;5.07;;;5.30;91.90;;;;;;4994223;28;20490;-86
2021/03/13 00:14:20;;;;;;;30.83;5.10;;;5.30;91.70;;;;;;4993535;28;20096;-88
2021/03/13 00:16:58;;;;;;;27.60;4.72;;;5.30;91.80;;;;;;4994487;28;20054;-88
2021/03/13 00:19:26;;;;;;;26.73;4.60;;;5.40;91.90;;;;;;4994287;28;20086;-86
2021/03/13 00:21:58;;;;;;;28.15;4.60;;;5.30;91.80;;;;;;4991050;28;20051;-87
2021/03/13 00:24:23;;;;;;;26.83;4.32;;;5.30;91.80;;;;;;4974679;28;20097;-87
2021/03/13 00:26:59;;;;;;;27.67;4.47;;;5.30;91.70;;;;;;4974682;28;20051;-86
2021/03/13 00:29:34;;;;;;;25.40;4.28;;;5.30;91.70;;;;;;4974138;28;20043;-86
2021/03/13 00:32:10;;;;;;;29.35;4.68;;;5.30;91.70;;;;;;4975502;28;20070;-87
2021/03/13 00:34:36;;;;;;;38.97;4.95;;;5.30;91.60;;;;;;4993543;28;20050;-87
2021/03/13 00:37:03;;;;;;;22.95;4.07;;;5.30;91.70;;;;;;4994127;28;20479;-86
2021/03/13 00:39:48;;;;;;;25.20;4.32;;;5.30;91.70;;;;;;4988657;28;20569;-86
2021/03/13 00:42:22;;;;;;;26.63;4.35;;;5.30;91.70;;;;;;4973574;28;20050;-86
2021/03/13 00:45:00;;;;;;;24.17;4.30;;;5.30;91.70;;;;;;4974721;28;20058;-86
2021/03/13 00:47:29;;;;;;;26.42;4.35;;;5.30;91.80;;;;;;4974384;28;20495;-86
2021/03/13 00:49:55;;;;;;;27.13;4.53;;;5.30;91.70;;;;;;4974213;28;20089;-87
2021/03/13 00:59:58;;;;;;;23.45;4.65;;;5.30;91.80;;;;;;4858325;29;20093;-87
2021/03/13 01:02:27;;;;;;;21.17;4.47;;;5.30;91.70;;;;;;4858273;29;20057;-87
2021/03/13 01:05:04;;;;;;;22.55;4.07;;;5.30;91.70;;;;;;4931592;29;20054;-86
2021/03/13 01:07:33;;;;;;;22.02;4.30;;;5.30;91.80;;;;;;4933124;29;20058;-87
2021/03/13 01:10:34;;;;;;;23.92;5.00;;;5.30;91.80;;;;;;4932881;29;20055;-86
2021/03/13 01:13:52;;;;;;;21.80;4.35;;;5.30;91.90;;;;;;4927181;29;20047;-86
2021/03/13 01:16:27;;;;;;;20.85;4.85;;;5.30;91.90;;;;;;4895632;29;20049;-85
2021/03/13 01:18:58;;;;;;;24.77;4.78;;;5.30;91.90;;;;;;4894077;29;20128;-86
2021/03/13 01:21:37;;;;;;;24.40;4.88;;;5.30;91.90;;;;;;4895273;29;20127;-86
2021/03/13 01:27:29;;;;;;;;;;;;;;;;;;;;;
2021/03/13 01:31:38;;;;;;;32.92;5.53;;;5.40;92.00;;;;;;4957383;28;20049;-86
2021/03/13 01:39:35;;;;;;;;;;;;;;;;;;;;;
2021/03/13 01:47:07;;;;;;;32.28;6.47;;;5.50;92.00;;;;;;4914803;29;20083;-87
2021/03/13 01:49:33;;;;;;;25.42;6.28;;;5.50;91.90;;;;;;4909135;29;20449;-86
2021/03/13 01:52:01;;;;;;;28.65;6.55;;;5.50;91.90;;;;;;4957174;28;20046;-86
2021/03/13 01:54:27;;;;;;;27.38;6.50;;;5.50;91.80;;;;;;5016492;28;20121;-87
2021/03/13 01:56:56;;;;;;;26.52;6.53;;;5.50;91.90;;;;;;5015609;28;20165;-85
2021/03/13 01:59:31;;;;;;;26.08;6.75;;;5.60;91.90;;;;;;5015839;28;20141;-86
2021/03/13 02:01:57;;;;;;;27.42;6.05;;;5.60;91.90;;;;;;5016580;28;20406;-86
2021/03/13 02:04:23;;;;;;;26.98;6.45;;;5.60;91.90;;;;;;5016592;28;20057;-86
2021/03/13 02:07:02;;;;;;;21.75;6.18;;;5.60;91.90;;;;;;5015159;28;20100;-86
2021/03/13 02:09:42;;;;;;;29.88;6.70;;;5.60;91.90;;;;;;5016364;28;20628;-86
2021/03/13 02:12:45;;;;;;;;;;;;;;;;;;;;;
2021/03/13 02:15:51;;;;;;;23.17;6.45;;;5.70;92.00;;;;;;5015928;28;20056;-86
2021/03/13 02:18:41;;;;;;;26.77;5.65;;;5.70;92.00;;;;;;5016559;28;20108;-87
2021/03/13 02:21:12;;;;;;;29.27;6.03;;;5.70;91.90;;;;;;5015971;28;20061;-86
2021/03/13 02:24:26;;;;;;;23.30;5.55;;;5.80;91.90;;;;;;5016354;28;20053;-86
2021/03/13 02:33:40;;;;;;;26.08;5.18;;;5.90;91.80;;;;;;5035872;28;20068;-85
2021/03/13 02:36:10;;;;;;;29.27;6.50;;;5.90;91.80;;;;;;5035243;28;20136;-87
2021/03/13 02:38:44;;;;;;;22.05;5.50;;;5.90;91.80;;;;;;5035788;28;20049;-87
2021/03/13 02:41:31;;;;;;;25.80;5.72;;;5.90;91.80;;;;;;5034467;28;20045;-87
2021/03/13 02:44:02;;;;;;;24.55;6.10;;;5.90;91.80;;;;;;5035619;28;20490;-87
2021/03/13 02:46:57;;;;;;;26.05;6.55;;;5.90;91.80;;;;;;5035532;28;20393;-87
2021/03/13 02:49:56;;;;;;;24.85;5.60;;;6.00;91.70;;;;;;5032931;28;20073;-87
2021/03/13 02:52:41;;;;;;;27.17;6.45;;;6.00;91.80;;;;;;5035433;28;20124;-86
2021/03/13 02:55:27;;;;;;;25.38;6.05;;;6.00;91.80;;;;;;5034142;28;20049;-88
2021/03/13 02:58:01;;;;;;;22.33;5.20;;;6.00;91.70;;;;;;5034851;28;20049;-88
2021/03/13 03:00:42;;;;;;;19.27;4.93;;;6.00;91.70;;;;;;5035309;28;20049;-89
2021/03/13 03:03:29;;;;;;;20.33;4.72;;;6.00;91.80;;;;;;5034076;28;20049;-88
2021/03/13 03:05:56;;;;;;;27.33;5.47;;;6.00;91.80;;;;;;5034795;28;20053;-87
2021/03/13 03:08:26;;;;;;;23.98;5.03;;;6.00;91.80;;;;;;5035221;28;20057;-86
2021/03/13 03:10:52;;;;;;;22.50;5.00;;;6.00;91.80;;;;;;5034761;28;20057;-87
2021/03/13 03:13:26;;;;;;;17.63;4.68;;;6.10;91.80;;;;;;5035010;28;20045;-87
2021/03/13 03:16:03;;;;;;;17.67;4.75;;;6.10;91.90;;;;;;5017665;28;20116;-88
2021/03/13 03:18:30;;;;;;;26.00;5.40;;;6.10;91.90;;;;;;5035428;28;20053;-87
2021/03/13 03:20:58;;;;;;;20.70;4.55;;;6.10;92.00;;;;;;5035366;28;20187;-87
2021/03/13 03:23:24;;;;;;;14.90;4.47;;;6.10;92.00;;;;;;5034297;28;20921;-87
2021/03/13 03:26:00;;;;;;;17.50;4.70;;;6.10;92.00;;;;;;5035362;28;20053;-87
2021/03/13 03:28:26;;;;;;;14.65;4.72;;;6.10;92.10;;;;;;5034867;28;20064;-87
2021/03/13 03:30:54;;;;;;;17.55;4.35;;;6.00;92.10;;;;;;5034971;28;20127;-88
2021/03/13 03:33:21;;;;;;;15.10;4.68;;;6.10;92.10;;;;;;5034585;28;20042;-87
2021/03/13 03:35:48;;;;;;;13.15;3.90;;;6.00;92.10;;;;;;5034764;28;20608;-85
2021/03/13 03:38:14;;;;;;;16.05;4.38;;;6.00;92.10;;;;;;5034144;28;20057;-88
2021/03/13 03:40:44;;;;;;;16.23;4.43;;;6.00;92.20;;;;;;5034784;28;20072;-88
2021/03/13 03:43:25;;;;;;;15.30;3.95;;;6.00;92.20;;;;;;5034365;28;20053;-87
2021/03/13 03:46:29;;;;;;;17.45;4.07;;;6.00;92.30;;;;;;5033666;28;20045;-88
2021/03/13 03:48:58;;;;;;;13.45;3.55;;;6.00;92.30;;;;;;4983221;28;20076;-88
2021/03/13 03:51:27;;;;;;;10.93;3.33;;;6.00;92.20;;;;;;5034482;28;20085;-89
2021/03/13 03:53:53;;;;;;;10.93;3.50;;;6.00;92.30;;;;;;5034563;28;20060;-90
2021/03/13 03:56:23;;;;;;;13.13;3.42;;;6.00;92.30;;;;;;5034206;28;20045;-89
2021/03/13 03:58:53;;;;;;;9.23;3.20;;;6.00;92.30;;;;;;5034252;28;20504;-87
2021/03/13 04:01:22;;;;;;;10.60;3.00;;;6.00;92.40;;;;;;5034519;28;20045;-86
2021/03/13 04:03:59;;;;;;;11.85;2.92;;;6.00;92.40;;;;;;5034630;28;20121;-87
2021/03/13 04:06:26;;;;;;;7.72;2.47;;;6.00;92.40;;;;;;5033836;28;20092;-86
2021/03/13 04:08:57;;;;;;;9.38;2.58;;;6.00;92.40;;;;;;5033552;28;20072;-88
2021/03/13 04:11:24;;;;;;;7.13;2.20;;;5.90;92.40;;;;;;5034208;28;20489;-86
2021/03/13 04:13:52;;;;;;;6.75;1.80;;;5.90;92.40;;;;;;5033516;28;20499;-90
2021/03/13 04:16:19;;;;;;;7.72;2.13;;;5.90;92.40;;;;;;5034033;28;20044;-87
2021/03/13 04:19:04;;;;;;;6.60;2.00;;;5.90;92.30;;;;;;5033999;28;20081;-86
2021/03/13 04:21:57;;;;;;;5.85;2.05;;;5.90;92.30;;;;;;5033557;28;20049;-90
2021/03/13 04:24:25;;;;;;;7.57;2.20;;;5.90;92.30;;;;;;5017656;28;20049;-86
2021/03/13 04:27:03;;;;;;;7.80;2.20;;;5.90;92.30;;;;;;5032838;28;20045;-86
2021/03/13 04:29:35;;;;;;;8.50;2.10;;;5.80;92.30;;;;;;5033059;28;20531;-86
2021/03/13 04:32:02;;;;;;;6.53;2.35;;;5.80;92.20;;;;;;5033874;28;20047;-85
2021/03/13 04:34:29;;;;;;;7.07;1.95;;;5.80;92.40;;;;;;5032879;28;20053;-87
2021/03/13 04:36:56;;;;;;;6.35;1.83;;;5.80;92.40;;;;;;5033506;28;20099;-87
2021/03/13 04:39:28;;;;;;;6.63;2.20;;;5.80;92.40;;;;;;5033219;28;20053;-87
2021/03/13 04:41:57;;;;;;;6.03;2.10;;;5.80;92.40;;;;;;5032954;28;20057;-86
2021/03/13 04:44:27;;;;;;;6.07;2.03;;;5.80;92.40;;;;;;5033026;28;20084;-85
2021/03/13 04:46:53;;;;;;;4.82;2.20;;;5.80;92.40;;;;;;5033498;28;20049;-87
2021/03/13 04:49:22;;;;;;;6.30;2.10;;;5.80;92.50;;;;;;5032421;28;20493;-87
2021/03/13 04:51:48;;;;;;;6.80;2.10;;;5.80;92.50;;;;;;5033426;28;20054;-86
2021/03/13 04:54:13;;;;;;;6.68;1.90;;;5.80;92.50;;;;;;5033120;28;20052;-88
2021/03/13 04:56:40;;;;;;;6.15;2.20;;;5.80;92.50;;;;;;5032483;28;20481;-86
2021/03/13 04:59:06;;;;;;;7.65;2.47;;;5.80;92.50;;;;;;5033247;28;20627;-88
2021/03/13 05:01:32;;;;;;;6.63;2.10;;;5.80;92.50;;;;;;5032423;28;20049;-86
2021/03/13 05:03:58;;;;;;;5.10;2.17;;;5.80;92.50;;;;;;5033108;28;20053;-87
2021/03/13 05:06:24;;;;;;;6.72;2.20;;;5.90;92.60;;;;;;5032850;28;20520;-86
2021/03/13 05:08:50;;;;;;;6.03;2.38;;;5.90;92.60;;;;;;5027583;28;20572;-86
2021/03/13 05:11:16;;;;;;;6.90;2.33;;;5.90;92.60;;;;;;5012765;28;20085;-86
2021/03/13 05:13:42;;;;;;;7.15;2.33;;;5.90;92.70;;;;;;5014991;28;20478;-88
2021/03/13 05:16:11;;;;;;;5.40;2.20;;;5.90;92.60;;;;;;5024343;28;20503;-87
2021/03/13 05:18:51;;;;;;;5.65;2.00;;;5.90;92.60;;;;;;5031349;28;20049;-87
2021/03/13 05:24:20;;;;;;;4.65;2.17;;;6.00;92.70;;;;;;5027346;28;20049;-86
2021/03/13 05:26:52;;;;;;;6.68;2.45;;;5.90;92.80;;;;;;5030820;28;20512;-86
2021/03/13 05:29:18;;;;;;;6.38;2.25;;;6.00;92.80;;;;;;5031546;28;20505;-86
2021/03/13 05:31:44;;;;;;;6.63;2.25;;;6.00;92.80;;;;;;5027792;28;20049;-87
2021/03/13 05:34:20;;;;;;;6.18;2.10;;;6.00;92.80;;;;;;5014732;28;20061;-87
2021/03/13 05:36:48;;;;;;;7.22;2.50;;;6.00;92.80;;;;;;5032254;28;20049;-89
2021/03/13 05:39:14;;;;;;;6.35;2.30;;;6.10;92.80;;;;;;5032753;28;20045;-85
2021/03/13 05:41:42;;;;;;;7.70;2.17;;;6.10;92.90;;;;;;5032761;28;20053;-85
2021/03/13 05:44:08;;;;;;;7.22;2.20;;;6.10;92.90;;;;;;5013844;28;20046;-85
2021/03/13 05:46:37;;;;;;;6.85;2.22;;;6.10;93.00;;;;;;5012960;28;20069;-83
2021/03/13 05:49:08;;;;;;;6.03;2.20;;;6.10;92.90;;;;;;5013046;28;20054;-86
2021/03/13 05:51:40;;;;;;;6.20;2.30;;;6.20;93.00;;;;;;5012001;28;20100;-85
2021/03/13 05:54:06;;;;;;;5.53;1.90;;;6.20;93.00;;;;;;5012781;28;20056;-85
2021/03/13 05:56:33;;;;;;;6.28;2.13;;;6.20;93.00;;;;;;5012423;28;20049;-85
2021/03/13 05:59:00;;;;;;;6.80;2.20;;;6.20;93.00;;;;;;5014987;28;20050;-85
2021/03/13 06:01:27;;;;;;;8.75;2.28;;;6.30;93.00;;;;;;5023136;28;20068;-87
2021/03/13 06:03:53;;;;;;;5.57;2.10;;;6.30;93.10;;;;;;5032691;28;20052;-86
2021/03/13 06:06:21;;;;;;;6.40;2.05;;;6.30;93.10;;;;;;5012709;28;20046;-85
2021/03/13 06:08:48;;;;;;;4.82;1.92;;;6.30;93.20;;;;;;5016142;28;20050;-86
2021/03/13 06:14:24;;;;;;;7.00;1.90;;;6.40;93.20;;;;;;4961520;28;20452;-85
2021/03/13 06:23:43;;;;;;;6.18;2.00;;;6.50;93.20;;;;;;4956385;28;20306;-87
2021/03/13 06:26:25;;;;;;;5.22;1.60;;;6.50;93.20;;;;;;5010546;28;20112;-86
2021/03/13 06:28:56;;;;;;;5.93;1.70;;;6.50;93.20;;;;;;5006248;28;20058;-86
2021/03/13 06:31:27;;;;;;;5.47;2.10;;;6.60;93.20;;;;;;5013182;28;20065;-86
2021/03/13 06:33:54;;;;;;;6.47;1.60;;;6.60;93.10;;;;;;5015827;28;20093;-84
2021/03/13 06:36:25;;;;;;;4.10;1.60;;;6.60;93.10;;;;;;5015584;28;20065;-84
2021/03/13 06:38:51;;;;;;;7.22;2.20;;;6.70;93.00;;;;;;5015816;28;20045;-82
2021/03/13 06:41:22;;;;;;;5.40;1.55;;;6.70;93.10;;;;;;5015061;28;20133;-85
2021/03/13 06:43:56;;;;;;;4.38;1.67;;;6.70;93.00;;;;;;5015944;28;20065;-83
2021/03/13 06:46:33;;;;;;;5.95;1.77;;;6.70;93.40;;;;;;5015585;28;20050;-85
2021/03/13 06:48:59;;;;;;;5.15;1.52;;;6.70;93.10;;;;;;5015260;28;20054;-85
2021/03/13 06:51:28;;;;;;;5.43;1.42;;;6.70;93.10;;;;;;5015224;28;20053;-84
2021/03/13 06:54:00;;;;;;;4.25;1.05;;;6.60;93.10;;;;;;5015837;28;20104;-85
2021/03/13 06:56:37;;;;;;;5.15;1.13;;;6.70;93.00;;;;;;5014644;28;20061;-87
2021/03/13 06:59:03;;;;;;;3.95;0.80;;;6.60;92.90;;;;;;5015831;28;20100;-88
2021/03/13 07:01:40;;;;;;;2.35;0.63;;;6.60;92.70;;;;;;5014623;28;20056;-86
2021/03/13 07:04:26;;;;;;;3.35;0.70;;;6.50;92.40;;;;;;5014846;28;20053;-86
2021/03/13 07:07:14;;;;;;;3.78;0.70;;;6.40;92.30;;;;;;5015567;28;20053;-88
2021/03/13 07:10:12;;;;;;;3.72;0.70;;;6.30;92.30;;;;;;5014417;28;20544;-87
2021/03/13 07:12:55;;;;;;;3.55;0.80;;;6.20;92.10;;;;;;5015376;28;20057;-88
2021/03/13 07:18:24;;;;;;;4.13;0.70;;;6.20;92.20;;;;;;5028362;22;20053;-86
2021/03/13 07:20:49;;;;;;;3.28;0.82;;;6.10;92.20;;;;;;5035162;28;20124;-84
2021/03/13 07:23:21;;;;;;;5.68;0.85;;;6.10;92.10;;;;;;5033560;28;20512;-86
2021/03/13 07:25:51;;;;;;;4.45;1.00;;;6.20;92.10;;;;;;5034680;28;20088;-86
2021/03/13 07:28:20;;;;;;;5.22;0.80;;;6.10;92.40;;;;;;5034359;28;20128;-88
2021/03/13 07:30:50;;;;;;;3.67;0.80;;;6.10;92.10;;;;;;5033890;28;20049;-86
2021/03/13 07:33:37;;;;;;;6.40;0.95;;;6.10;92.10;;;;;;5031852;28;20057;-86
2021/03/13 07:40:31;;;;;;;;;;;6.20;92.30;;;;;;4922277;29;20063;-84
2021/03/13 07:43:02;;;;;;;9.82;1.75;;;6.20;92.40;;;;;;4930347;29;19933;-85
2021/03/13 07:46:11;;;;;;;10.77;1.20;;;6.30;92.30;;;;;;4974330;28;20046;-87
2021/03/13 07:53:14;;;;;;;11.87;1.50;;;6.50;92.10;;;;;;5029359;28;20529;-85
2021/03/13 07:56:48;;;;;;;16.65;2.25;;;6.60;91.80;;;;;;5033649;28;20141;-84
2021/03/13 07:59:47;;;;;;;12.95;2.28;;;6.70;91.60;;;;;;5000926;28;20085;-87
2021/03/13 08:03:16;;;;;;;18.30;2.88;;;6.70;91.30;;;;;;5015845;28;20099;-89
2021/03/13 08:06:59;;;;;;;16.98;2.70;;;6.80;91.10;;;;;;5175960;22;20517;-93
2021/03/13 08:14:08;;;;;;;18.45;2.75;;;6.90;90.00;;;;;;4959846;28;20059;-87
2021/03/13 08:17:16;;;;;;;16.90;2.58;;;6.90;90.20;;;;;;4968582;28;20498;-87
2021/03/13 08:19:45;;;;;;;17.40;2.35;;;7.00;90.20;;;;;;4957115;28;20372;-88
2021/03/13 08:22:23;;;;;;;17.23;2.88;;;7.10;90.20;;;;;;5020899;28;20136;-89
2021/03/13 08:24:54;;;;;;;17.40;2.67;;;7.20;90.20;;;;;;5029660;28;20397;-89
2021/03/13 08:27:43;;;;;;;21.80;2.80;;;7.20;90.00;;;;;;5028826;28;20046;-91
2021/03/13 08:30:21;;;;;;;25.05;3.17;;;7.30;89.70;;;;;;5027537;28;20084;-92
2021/03/13 08:33:09;;;;;;;19.30;2.97;;;7.40;89.50;;;;;;5031949;28;20519;-91
2021/03/13 08:36:16;;;;;;;18.65;2.85;;;7.40;89.30;;;;;;5032593;28;20049;-90
2021/03/13 08:39:01;;;;;;;16.23;2.67;;;7.50;89.50;;;;;;5031169;28;20049;-89
2021/03/13 08:41:52;;;;;;;17.17;3.00;;;7.50;88.40;;;;;;5028809;28;20045;-91
2021/03/13 08:44:21;;;;;;;17.05;2.90;;;7.50;88.10;;;;;;5028868;28;20061;-91
2021/03/13 08:47:15;;;;;;;15.30;2.25;;;7.60;87.70;;;;;;5031636;28;20069;-85
2021/03/13 08:49:53;;;;;;;11.68;2.05;;;7.50;87.50;;;;;;5032809;28;20049;-86
2021/03/13 08:52:42;;;;;;;8.82;1.60;;;7.50;86.80;;;;;;5032762;28;20045;-90
2021/03/13 08:55:29;;;;;;;9.10;1.55;;;7.40;85.50;;;;;;5016888;28;20053;-86
2021/03/13 08:58:01;;;;;;;11.73;1.90;;;7.30;86.90;;;;;;5031519;28;20420;-91
2021/03/13 09:00:27;;;;;;;13.52;2.10;;;7.10;87.60;;;;;;5032824;28;20049;-89
2021/03/13 09:02:53;;;;;;;13.20;2.00;;;7.00;88.10;;;;;;5031955;28;20095;-86
2021/03/13 09:05:22;;;;;;;11.05;1.85;;;6.90;88.40;;;;;;5031462;28;20421;-84
2021/03/13 09:07:51;;;;;;;9.30;1.48;;;6.80;88.20;;;;;;5028573;28;20101;-88
2021/03/13 09:10:20;;;;;;;9.00;1.48;;;6.70;88.40;;;;;;5033310;28;20053;-88
2021/03/13 09:12:51;;;;;;;12.20;1.80;;;6.60;88.70;;;;;;5033156;28;20466;-87
2021/03/13 09:15:17;;;;;;;8.50;1.42;;;6.50;89.00;;;;;;5029751;28;20089;-90
2021/03/13 09:18:01;;;;;;;10.00;1.75;;;6.40;89.60;;;;;;5032505;28;20045;-87
2021/03/13 09:20:48;;;;;;;10.50;1.85;;;6.30;90.00;;;;;;5032830;28;20052;-89
2021/03/13 09:23:19;;;;;;;17.27;2.30;;;6.30;90.00;;;;;;5031718;28;20049;-90
2021/03/13 09:25:45;;;;;;;17.45;2.90;;;6.30;90.30;;;;;;5033183;28;20128;-89
2021/03/13 09:28:18;;;;;;;18.73;3.00;;;6.30;90.50;;;;;;5030998;28;20076;-88
2021/03/13 09:31:21;;;;;;;14.55;2.70;;;6.40;90.60;;;;;;5024496;28;20129;-86
2021/03/13 09:33:53;;;;;;;17.98;2.80;;;6.50;90.90;;;;;;5020445;28;20409;-89
2021/03/13 09:36:28;;;;;;;16.55;2.65;;;6.60;90.90;;;;;;5031240;28;20050;-86
2021/03/13 09:39:22;;;;;;;20.98;2.85;;;6.70;91.00;;;;;;5028810;28;20068;-87
2021/03/13 09:42:13;;;;;;;22.27;3.25;;;6.80;91.00;;;;;;5029734;28;20128;-87
2021/03/13 09:44:51;;;;;;;21.92;2.90;;;6.90;91.00;;;;;;5028074;28;20048;-85
2021/03/13 09:47:54;;;;;;;21.35;3.42;;;7.00;90.70;;;;;;5023228;28;20103;-87
2021/03/13 09:50:39;;;;;;;16.63;2.88;;;7.10;90.60;;;;;;5027825;28;20053;-86
2021/03/13 09:53:16;;;;;;;18.35;3.20;;;7.20;90.40;;;;;;5026463;28;20049;-88
2021/03/13 09:55:45;;;;;;;22.85;3.22;;;7.30;90.20;;;;;;5031355;28;20473;-88
2021/03/13 09:58:17;;;;;;;15.77;2.83;;;7.40;89.90;;;;;;5030879;28;20095;-85
2021/03/13 10:00:54;;;;;;;21.75;3.47;;;7.40;88.70;;;;;;5032596;28;20053;-84
2021/03/13 10:03:26;;;;;;;18.88;3.08;;;7.40;87.80;;;;;;5029582;28;20050;-85
2021/03/13 10:06:07;;;;;;;17.65;2.72;;;7.50;88.00;;;;;;5030826;28;20417;-87
2021/03/13 10:08:53;;;;;;;22.85;3.78;;;7.50;87.10;;;;;;5035904;28;20136;-86
2021/03/13 10:11:19;;;;;;;19.17;3.03;;;7.50;87.30;;;;;;5027299;28;20133;-84
2021/03/13 10:13:51;;;;;;;18.52;3.20;;;7.40;87.30;;;;;;5009775;28;20128;-84
2021/03/13 10:16:17;;;;;;;15.38;2.65;;;7.40;87.40;;;;;;5033320;28;20049;-83
2021/03/13 10:18:44;;;;;;;20.83;3.25;;;7.30;87.50;;;;;;5027948;28;20538;-83
2021/03/13 10:21:09;;;;;;;22.80;2.97;;;7.30;87.60;;;;;;5028220;28;20053;-84
2021/03/13 10:23:36;;;;;;;20.23;3.20;;;7.30;88.00;;;;;;5025216;28;20041;-84
2021/03/13 10:26:15;;;;;;;14.25;2.35;;;7.40;88.50;;;;;;5023908;28;20134;-84
2021/03/13 10:28:45;;;;;;;16.67;2.65;;;7.40;87.20;;;;;;5024851;28;20072;-83
2021/03/13 10:31:11;;;;;;;15.48;2.78;;;7.40;87.10;;;;;;5023730;28;20077;-84
2021/03/13 10:33:50;;;;;;;15.70;2.60;;;7.50;87.20;;;;;;5034434;28;20050;-85
2021/03/13 10:36:21;;;;;;;19.67;2.95;;;7.50;85.70;;;;;;5035337;28;20058;-87
2021/03/13 10:38:51;;;;;;;16.17;2.63;;;7.60;85.70;;;;;;5035065;28;20057;-85
2021/03/13 10:41:22;;;;;;;12.98;2.33;;;7.60;86.30;;;;;;5032533;28;20543;-85
2021/03/13 10:43:56;;;;;;;14.05;2.55;;;7.70;85.20;;;;;;5032540;28;20091;-87
2021/03/13 10:46:26;;;;;;;21.58;2.60;;;7.70;84.70;;;;;;5021431;28;20053;-83
2021/03/13 10:49:01;;;;;;;17.23;2.22;;;7.80;84.10;;;;;;5031411;28;20095;-88
2021/03/13 10:51:31;;;;;;;16.58;3.53;;;7.70;83.00;;;;;;5023173;28;20042;-84
2021/03/13 10:53:59;;;;;;;17.13;2.70;;;7.80;83.10;;;;;;5033356;28;20405;-83
2021/03/13 10:56:41;;;;;;;18.83;2.60;;;7.80;83.30;;;;;;5035060;28;20058;-84
2021/03/13 10:59:07;;;;;;;14.95;2.90;;;7.80;82.50;;;;;;5035095;28;20050;-84
2021/03/13 11:01:33;;;;;;;17.85;2.70;;;7.70;82.60;;;;;;5034257;28;20054;-85
2021/03/13 11:03:59;;;;;;;21.45;3.05;;;7.70;82.30;;;;;;5035451;28;20048;-84
2021/03/13 11:06:28;;;;;;;17.33;3.65;;;7.70;82.60;;;;;;5034969;28;20455;-83
2021/03/13 11:08:56;;;;;;;13.82;2.53;;;7.70;83.30;;;;;;5034196;28;20505;-84
2021/03/13 11:11:23;;;;;;;20.17;2.42;;;7.70;83.80;;;;;;5034837;28;20049;-83
2021/03/13 11:13:49;;;;;;;22.45;3.15;;;7.70;83.90;;;;;;5034363;28;20041;-84
2021/03/13 11:16:14;;;;;;;12.32;2.35;;;7.70;84.60;;;;;;5034163;28;20056;-85
2021/03/13 11:18:40;;;;;;;13.85;2.67;;;7.70;84.90;;;;;;5033540;28;20135;-84
2021/03/13 11:21:07;;;;;;;16.60;2.40;;;7.80;84.90;;;;;;5034767;28;20494;-84
2021/03/13 11:23:32;;;;;;;13.65;2.85;;;7.80;84.60;;;;;;5033705;28;20620;-84
2021/03/13 11:25:58;;;;;;;16.15;2.75;;;7.90;84.40;;;;;;5034799;28;20120;-84
2021/03/13 11:28:24;;;;;;;15.85;2.72;;;7.90;84.30;;;;;;5033797;28;20417;-84
2021/03/13 11:30:50;;;;;;;15.82;2.63;;;7.90;84.10;;;;;;5034618;28;20390;-83
2021/03/13 11:33:15;;;;;;;15.57;3.10;;;7.90;84.10;;;;;;5034568;28;20045;-83
2021/03/13 11:35:43;;;;;;;17.08;2.92;;;7.90;83.90;;;;;;5033982;28;20053;-84
2021/03/13 11:38:09;;;;;;;16.95;2.83;;;7.90;83.60;;;;;;5034205;28;20513;-85
2021/03/13 11:40:40;;;;;;;20.00;3.00;;;7.90;83.80;;;;;;5034621;28;20057;-85
2021/03/13 11:43:05;;;;;;;17.15;2.70;;;8.00;83.90;;;;;;5033592;28;20456;-85
2021/03/13 11:45:31;;;;;;;21.98;2.97;;;8.00;83.00;;;;;;5034099;28;20053;-84
2021/03/13 11:47:57;;;;;;;19.80;3.13;;;8.00;82.50;;;;;;5034632;28;20095;-85
2021/03/13 11:50:28;;;;;;;15.85;2.92;;;8.10;82.80;;;;;;5033334;28;20501;-85
2021/03/13 11:52:56;;;;;;;17.67;2.92;;;8.20;82.10;;;;;;5034369;28;20045;-84
2021/03/13 11:55:24;;;;;;;15.98;2.88;;;8.20;81.70;;;;;;5033776;28;20053;-84
2021/03/13 11:57:50;;;;;;;14.95;2.70;;;8.30;81.30;;;;;;5033134;28;20046;-83
2021/03/13 12:00:17;;;;;;;12.35;2.75;;;8.20;80.80;;;;;;5033800;28;20056;-84
2021/03/13 12:02:43;;;;;;;19.17;3.08;;;8.20;80.60;;;;;;5034173;28;20053;-83
2021/03/13 12:05:09;;;;;;;14.60;3.03;;;8.30;80.60;;;;;;5033053;28;20049;-84
2021/03/13 12:07:37;;;;;;;19.50;2.92;;;8.20;80.60;;;;;;5033872;28;20144;-84
2021/03/13 12:10:07;;;;;;;16.10;2.38;;;8.20;81.70;;;;;;5033673;28;20054;-82
2021/03/13 12:12:33;;;;;;;17.55;2.83;;;8.20;81.00;;;;;;5032781;28;20451;-85
2021/03/13 12:14:59;;;;;;;20.05;3.17;;;8.20;81.50;;;;;;5026780;28;20049;-85
2021/03/13 12:17:25;;;;;;;17.67;2.85;;;8.20;81.40;;;;;;5021377;28;20050;-83
2021/03/13 12:19:51;;;;;;;17.15;3.30;;;8.10;81.80;;;;;;5028436;28;20046;-85
2021/03/13 12:22:17;;;;;;;15.65;3.03;;;8.10;82.10;;;;;;5032637;28;20053;-84
2021/03/13 12:24:43;;;;;;;16.38;2.42;;;8.10;82.70;;;;;;5026126;28;20061;-85
2021/03/13 12:27:10;;;;;;;15.75;2.80;;;8.20;83.30;;;;;;5033466;28;20041;-87
2021/03/13 12:29:36;;;;;;;14.07;2.30;;;8.30;83.50;;;;;;5021179;28;20118;-86
2021/03/13 12:32:02;;;;;;;10.55;2.53;;;8.30;83.10;;;;;;5032972;28;20448;-88
2021/03/13 12:34:27;;;;;;;7.07;1.15;;;8.30;82.50;;;;;;5026085;28;20050;-88
2021/03/13 12:36:53;;;;;;;7.18;1.55;;;8.30;80.60;;;;;;5013685;28;20049;-86
2021/03/13 12:39:19;;;;;;;5.65;1.33;;;8.20;80.90;;;;;;5012492;28;20054;-87
2021/03/13 12:41:46;;;;;;;5.20;1.00;;;8.10;81.10;;;;;;5013776;28;20053;-87
2021/03/13 12:44:12;;;;;;;9.18;1.23;;;8.00;81.20;;;;;;5013383;28;20437;-87
2021/03/13 12:46:49;;;;;;;5.63;1.10;;;7.90;82.30;;;;;;5016971;28;20077;-88
2021/03/13 12:50:01;;;;;;;8.00;1.30;;;7.90;83.20;;;;;;5029307;28;20053;-88
2021/03/13 12:52:27;;;;;;;9.57;1.55;;;7.90;83.40;;;;;;5032939;28;20401;-85
2021/03/13 12:54:53;;;;;;;11.45;1.85;;;7.80;84.10;;;;;;5032079;28;20053;-84
2021/03/13 12:57:46;;;;;;;13.65;2.17;;;7.90;84.50;;;;;;5032529;28;20049;-84
2021/03/13 13:00:12;;;;;;;17.45;2.67;;;7.90;84.60;;;;;;5031185;28;20452;-89
2021/03/13 13:02:37;;;;;;;15.10;2.63;;;7.90;84.60;;;;;;5017572;28;20052;-88
2021/03/13 13:05:16;;;;;;;13.73;2.67;;;8.00;84.70;;;;;;5014459;28;20053;-91
2021/03/13 13:07:46;;;;;;;17.98;2.60;;;8.00;84.80;;;;;;5012519;28;20520;-88
2021/03/13 13:10:13;;;;;;;14.73;2.60;;;8.10;84.80;;;;;;5024070;28;20056;-89
2021/03/13 13:12:39;;;;;;;13.50;2.75;;;8.20;84.60;;;;;;5027327;28;20041;-89
2021/03/13 13:15:06;;;;;;;16.80;2.67;;;8.20;84.40;;;;;;5025556;28;20510;-88
2021/03/13 13:17:34;;;;;;;12.77;2.65;;;8.30;83.80;;;;;;5032612;28;20441;-88
2021/03/13 13:20:00;;;;;;;15.73;2.80;;;8.40;83.30;;;;;;5032692;28;20050;-91
2021/03/13 13:22:35;;;;;;;15.90;2.60;;;8.40;83.10;;;;;;5020415;28;20048;-90
2021/03/13 13:25:01;;;;;;;16.23;2.83;;;8.40;82.00;;;;;;5032856;28;20057;-88
2021/03/13 13:27:27;;;;;;;12.95;2.40;;;8.50;82.10;;;;;;5021584;28;20046;-88
2021/03/13 13:29:55;;;;;;;10.50;1.92;;;8.50;82.20;;;;;;5012445;28;20050;-83
2021/03/13 13:32:21;;;;;;;8.55;1.90;;;8.50;82.40;;;;;;5019173;28;20460;-86
2021/03/13 13:34:52;;;;;;;9.63;1.42;;;8.40;82.80;;;;;;5032725;28;20145;-87
2021/03/13 13:37:21;;;;;;;7.75;1.38;;;8.20;82.90;;;;;;5027153;28;20092;-88
2021/03/13 13:39:57;;;;;;;7.53;1.45;;;8.10;83.50;;;;;;5022882;28;20056;-85
2021/03/13 13:42:52;;;;;;;8.45;1.33;;;7.90;84.60;;;;;;5015388;28;20056;-88
2021/03/13 13:45:43;;;;;;;11.30;1.77;;;7.70;85.30;;;;;;5023804;28;20136;-85
2021/03/13 13:48:37;;;;;;;9.40;1.75;;;7.60;86.10;;;;;;5037468;28;20049;-87
2021/03/13 13:51:12;;;;;;;10.93;1.80;;;7.60;86.90;;;;;;5038286;28;20041;-86
2021/03/13 13:53:43;;;;;;;16.05;2.38;;;7.60;87.30;;;;;;5032900;28;20102;-84
2021/03/13 13:56:29;;;;;;;10.68;2.05;;;7.60;87.70;;;;;;5033831;28;20080;-91
2021/03/13 13:58:55;;;;;;;10.60;1.92;;;7.60;87.60;;;;;;5034376;28;20042;-86
2021/03/13 14:01:20;;;;;;;12.23;2.03;;;7.60;87.60;;;;;;5032404;28;20054;-84
2021/03/13 14:03:49;;;;;;;14.32;2.47;;;7.60;87.40;;;;;;5023238;28;20050;-85
2021/03/13 14:06:15;;;;;;;10.75;2.03;;;7.60;87.50;;;;;;5015398;28;20046;-86
2021/03/13 14:08:43;;;;;;;11.85;2.10;;;7.60;87.70;;;;;;5007449;28;20064;-87
2021/03/13 14:11:14;;;;;;;15.82;2.45;;;7.60;87.80;;;;;;5027128;28;20081;-87
2021/03/13 14:13:46;;;;;;;11.90;1.85;;;7.60;88.10;;;;;;5035910;28;20057;-86
2021/03/13 14:16:16;;;;;;;12.50;1.85;;;7.60;88.20;;;;;;5029871;28;20052;-86
2021/03/13 14:18:41;;;;;;;14.63;2.10;;;7.60;87.70;;;;;;5016578;28;20147;-85
2021/03/13 14:21:07;;;;;;;12.90;2.17;;;7.60;87.70;;;;;;5016226;28;20486;-84
2021/03/13 14:23:34;;;;;;;10.48;1.85;;;7.60;87.60;;;;;;5017035;28;20179;-83
2021/03/13 14:26:00;;;;;;;10.10;1.42;;;7.60;87.70;;;;;;5015461;28;20180;-87